Ipu, Brazil
Current Conditions -  °F | °C
As of 12:00 PM on Thursday 30 Oct 2014 (Local Time) from SBPB Reporting Station
Clear Clear  
Wind Chill: 93°   Ceiling: Unl
Heat Index: 101°   Visibility: 6mi
Dew Point: 72°   Wind: 22mph
Humidity: 49%   Direction: 60°ENE
Pressure: 29.83"   Gusts: NA
Location:  4.32°S, 40.71°W
Report Text: SBPB 301500Z 06019KT CAVOK 34/22 Q1010
Loading
Personal Weather Stations






























Interactive Weather Map
Tropical Storm Tracking
New forecast layout! Learn more

10-Day Weather Forecast

Advertisements
Track Severe Weather on mobile